createdAt,value
2019-03-17T00:00:18.185Z,11.80
2019-03-17T00:02:47.462Z,11.70
2019-03-17T00:05:17.037Z,11.70
2019-03-17T00:07:46.308Z,11.60
2019-03-17T00:10:15.586Z,11.60
2019-03-17T00:12:45.138Z,11.70
2019-03-17T00:15:14.410Z,11.70
2019-03-17T00:17:43.684Z,11.70
2019-03-17T00:20:12.958Z,11.60
2019-03-17T00:22:42.235Z,11.60
2019-03-17T00:25:11.508Z,11.50
2019-03-17T00:27:40.783Z,11.50
2019-03-17T00:30:12.809Z,11.50
2019-03-17T00:32:42.406Z,11.50
2019-03-17T00:35:11.681Z,11.40
2019-03-17T00:37:40.968Z,11.40
2019-03-17T00:40:11.672Z,11.50
2019-03-17T00:42:40.952Z,11.40
2019-03-17T00:45:12.020Z,11.40
2019-03-17T00:47:41.391Z,11.50
2019-03-17T00:50:13.563Z,11.30
2019-03-17T00:52:42.841Z,11.30
2019-03-17T00:55:12.179Z,11.30
2019-03-17T00:57:41.458Z,11.30
2019-03-17T01:00:16.299Z,11.30
2019-03-17T01:02:45.584Z,11.40
2019-03-17T01:05:14.864Z,11.40
2019-03-17T01:07:44.140Z,11.30
2019-03-17T01:10:13.481Z,11.30
2019-03-17T01:12:44.941Z,11.20
2019-03-17T01:15:14.015Z,11.10
2019-03-17T01:17:43.335Z,11.00
2019-03-17T01:20:12.610Z,11.00
2019-03-17T01:22:42.135Z,11.10
2019-03-17T01:25:11.747Z,11.10
2019-03-17T01:27:41.022Z,11.00
2019-03-17T01:30:12.504Z,11.00
2019-03-17T01:32:41.779Z,10.90
2019-03-17T01:35:11.290Z,10.90
2019-03-17T01:37:40.630Z,10.80
2019-03-17T01:40:11.246Z,10.70
2019-03-17T01:42:40.849Z,10.60
2019-03-17T01:45:11.002Z,10.60
2019-03-17T01:47:40.275Z,10.50
2019-03-17T01:50:10.467Z,10.50
2019-03-17T01:52:39.741Z,10.40
2019-03-17T01:55:09.553Z,10.30
2019-03-17T01:57:38.834Z,10.30
2019-03-17T02:00:12.285Z,10.20
2019-03-17T02:02:41.562Z,10.20
2019-03-17T02:05:21.419Z,10.20
2019-03-17T02:07:42.348Z,10.10
2019-03-17T02:10:11.614Z,10.00
2019-03-17T02:12:40.905Z,10.00
2019-03-17T02:15:10.240Z,10.00
2019-03-17T02:17:39.760Z,10.00
2019-03-17T02:20:10.744Z,10.10
2019-03-17T02:22:40.013Z,10.00
2019-03-17T02:25:09.347Z,10.00
2019-03-17T02:27:38.615Z,10.00
2019-03-17T02:30:13.124Z,9.90
2019-03-17T02:32:42.733Z,9.90
2019-03-17T02:35:12.065Z,9.80
2019-03-17T02:37:41.353Z,9.70
2019-03-17T02:40:10.601Z,9.70
2019-03-17T02:42:39.852Z,9.70
2019-03-17T02:45:10.760Z,9.60
2019-03-17T02:47:40.275Z,9.60
2019-03-17T02:50:10.810Z,9.60
2019-03-17T02:52:40.316Z,9.70
2019-03-17T02:55:10.466Z,9.60
2019-03-17T02:57:39.713Z,9.70
2019-03-17T03:00:12.520Z,9.60
2019-03-17T03:02:41.868Z,9.50
2019-03-17T03:05:11.557Z,9.60
2019-03-17T03:07:40.761Z,9.60
2019-03-17T03:10:10.163Z,9.60
2019-03-17T03:12:39.758Z,9.50
2019-03-17T03:15:09.739Z,9.40
2019-03-17T03:17:38.989Z,9.50
2019-03-17T03:20:10.022Z,9.40
2019-03-17T03:22:39.284Z,9.50
2019-03-17T03:25:09.697Z,9.40
2019-03-17T03:27:38.950Z,9.50
2019-03-17T03:30:11.719Z,9.50
2019-03-17T03:32:40.954Z,9.50
2019-03-17T03:35:10.755Z,9.40
2019-03-17T03:37:40.035Z,9.40
2019-03-17T03:40:13.317Z,9.40
2019-03-17T03:42:42.651Z,9.30
2019-03-17T03:45:13.310Z,9.30
2019-03-17T03:47:42.568Z,9.40
2019-03-17T03:50:12.949Z,9.50
2019-03-17T03:52:42.556Z,9.50
2019-03-17T03:55:11.824Z,9.60
2019-03-17T03:57:41.258Z,9.60
2019-03-17T04:00:14.306Z,9.70
2019-03-17T04:02:43.888Z,9.80
2019-03-17T04:05:13.138Z,9.80
2019-03-17T04:07:42.407Z,9.80
2019-03-17T04:10:12.284Z,10.00
2019-03-17T04:12:41.787Z,10.00
2019-03-17T04:15:12.013Z,10.00
2019-03-17T04:17:41.603Z,10.00
2019-03-17T04:20:12.521Z,10.00
2019-03-17T04:22:41.780Z,10.00
2019-03-17T04:25:13.131Z,10.00
2019-03-17T04:27:42.408Z,10.00
2019-03-17T04:30:12.213Z,10.10
2019-03-17T04:32:41.812Z,10.10
2019-03-17T04:35:11.223Z,10.00
2019-03-17T04:37:40.548Z,10.10
2019-03-17T04:40:10.594Z,10.20
2019-03-17T04:42:39.866Z,10.30
2019-03-17T04:45:09.483Z,10.30
2019-03-17T04:47:38.754Z,10.30
2019-03-17T04:50:09.613Z,10.20
2019-03-17T04:52:38.899Z,10.20
2019-03-17T04:55:08.513Z,10.10
2019-03-17T04:57:37.778Z,10.00
2019-03-17T05:00:12.985Z,9.90
2019-03-17T05:02:42.270Z,9.80
2019-03-17T05:05:11.529Z,9.70
2019-03-17T05:07:40.813Z,9.60
2019-03-17T05:10:11.414Z,9.60
2019-03-17T05:12:40.674Z,9.50
2019-03-17T05:15:11.948Z,9.50
2019-03-17T05:17:41.217Z,9.40
2019-03-17T05:20:11.506Z,9.40
2019-03-17T05:22:40.769Z,9.40
2019-03-17T05:25:10.105Z,9.30
2019-03-17T05:27:39.377Z,9.30
2019-03-17T05:30:12.150Z,9.30
2019-03-17T05:32:41.713Z,9.20
2019-03-17T05:35:11.156Z,9.20
2019-03-17T05:37:40.405Z,9.10
2019-03-17T05:40:12.281Z,9.10
2019-03-17T05:42:41.546Z,9.10
2019-03-17T05:45:11.384Z,9.20
2019-03-17T05:47:40.998Z,9.20
2019-03-17T05:50:12.138Z,9.20
2019-03-17T05:52:41.410Z,9.30
2019-03-17T05:55:11.137Z,9.30
2019-03-17T05:57:40.400Z,9.30
2019-03-17T06:00:15.853Z,9.40
2019-03-17T06:02:45.398Z,9.30
2019-03-17T06:05:14.666Z,9.30
2019-03-17T06:07:43.942Z,9.30
2019-03-17T06:10:13.217Z,9.40
2019-03-17T06:12:42.578Z,9.40
2019-03-17T06:15:12.574Z,9.50
2019-03-17T06:17:41.829Z,9.70
2019-03-17T06:20:12.751Z,9.60
2019-03-17T06:22:42.022Z,9.70
2019-03-17T06:25:11.426Z,9.80
2019-03-17T06:27:41.498Z,9.80
2019-03-17T06:30:13.255Z,10.00
2019-03-17T06:32:42.518Z,10.00
2019-03-17T06:35:12.460Z,10.00
2019-03-17T06:37:42.062Z,10.00
2019-03-17T06:40:13.334Z,10.00
2019-03-17T06:42:42.612Z,10.10
2019-03-17T06:45:12.425Z,10.30
2019-03-17T06:47:41.685Z,10.30
2019-03-17T06:50:15.799Z,10.40
2019-03-17T06:52:45.096Z,10.50
2019-03-17T06:55:16.786Z,10.60
2019-03-17T06:57:46.049Z,10.70
2019-03-17T07:00:15.900Z,10.80
2019-03-17T07:02:45.238Z,10.90
2019-03-17T07:05:14.505Z,11.00
2019-03-17T07:07:44.842Z,11.00
2019-03-17T07:10:14.359Z,11.20
2019-03-17T07:12:43.635Z,11.20
2019-03-17T07:15:13.258Z,11.30
2019-03-17T07:17:42.540Z,11.40
2019-03-17T07:20:13.963Z,11.40
2019-03-17T07:22:43.243Z,11.50
2019-03-17T07:25:12.581Z,11.60
2019-03-17T07:27:41.855Z,11.80
2019-03-17T07:30:17.034Z,11.80
2019-03-17T07:32:46.636Z,11.90
2019-03-17T07:35:16.155Z,12.00
2019-03-17T07:37:56.314Z,12.00
2019-03-17T07:40:17.030Z,12.00
2019-03-17T07:42:46.268Z,12.10
2019-03-17T07:45:15.798Z,12.10
2019-03-17T07:47:45.416Z,12.10
2019-03-17T07:50:15.034Z,12.30
2019-03-17T07:52:44.306Z,12.50
2019-03-17T07:55:14.856Z,12.60
2019-03-17T07:57:44.139Z,12.90
2019-03-17T08:00:14.428Z,13.20
2019-03-17T08:02:43.705Z,13.40
2019-03-17T08:05:13.280Z,13.50
2019-03-17T08:07:42.561Z,13.60
2019-03-17T08:10:17.108Z,13.80
2019-03-17T08:12:46.395Z,13.80
2019-03-17T08:15:15.998Z,14.00
2019-03-17T08:17:45.289Z,14.00
2019-03-17T08:20:14.788Z,14.30
2019-03-17T08:22:44.320Z,14.20
2019-03-17T08:25:13.815Z,14.30
2019-03-17T08:27:43.084Z,14.50
2019-03-17T08:30:17.153Z,14.50
2019-03-17T08:32:46.748Z,14.60
2019-03-17T08:35:16.012Z,14.80
2019-03-17T08:37:45.291Z,14.80
2019-03-17T08:40:18.951Z,14.80
2019-03-17T08:42:48.238Z,15.00
2019-03-17T08:45:17.508Z,15.10
2019-03-17T08:47:57.346Z,15.30
2019-03-17T08:50:17.842Z,15.30
2019-03-17T08:52:47.116Z,15.40
2019-03-17T08:55:16.698Z,15.50
2019-03-17T08:57:45.968Z,15.60
2019-03-17T09:00:18.509Z,15.70
2019-03-17T09:02:47.808Z,15.70
2019-03-17T09:05:17.143Z,15.80
2019-03-17T09:07:46.408Z,16.00
2019-03-17T09:10:16.419Z,16.00
2019-03-17T09:12:45.997Z,15.70
2019-03-17T09:15:15.268Z,15.80
2019-03-17T09:17:44.600Z,15.80
2019-03-17T09:20:15.022Z,15.90
2019-03-17T09:22:44.279Z,16.10
2019-03-17T09:25:13.624Z,16.00
2019-03-17T09:27:43.546Z,16.10
2019-03-17T09:30:19.601Z,16.10
2019-03-17T09:32:48.886Z,16.30
2019-03-17T09:35:18.152Z,16.30
2019-03-17T09:37:47.417Z,16.40
2019-03-17T09:40:17.999Z,16.40
2019-03-17T09:42:47.272Z,16.60
2019-03-17T09:45:16.883Z,16.70
2019-03-17T09:47:46.378Z,16.70
2019-03-17T09:50:19.844Z,16.70
2019-03-17T09:52:49.550Z,16.70
2019-03-17T09:55:18.814Z,16.60
2019-03-17T09:57:48.134Z,16.60
2019-03-17T10:00:20.557Z,16.90
2019-03-17T10:02:49.851Z,16.90
2019-03-17T10:05:19.715Z,16.90
2019-03-17T10:07:49.248Z,17.10
2019-03-17T10:10:24.183Z,16.80
2019-03-17T10:12:53.472Z,17.00
2019-03-17T10:15:23.090Z,17.40
2019-03-17T10:17:52.346Z,17.40
2019-03-17T10:20:21.803Z,17.60
2019-03-17T10:22:51.075Z,17.50
2019-03-17T10:25:20.342Z,17.70
2019-03-17T10:27:49.628Z,17.50
2019-03-17T10:30:20.600Z,17.60
2019-03-17T10:32:49.874Z,18.00
2019-03-17T10:35:19.157Z,17.80
2019-03-17T10:37:48.746Z,18.20
2019-03-17T10:40:22.059Z,18.60
2019-03-17T10:42:51.499Z,18.50
2019-03-17T10:45:21.038Z,18.80
2019-03-17T10:47:50.561Z,18.90
2019-03-17T10:50:21.673Z,19.10
2019-03-17T10:52:50.921Z,19.00
2019-03-17T10:55:20.512Z,19.70
2019-03-17T10:57:49.780Z,19.80
2019-03-17T11:00:20.863Z,20.20
2019-03-17T11:02:50.124Z,20.60
2019-03-17T11:05:19.874Z,20.60
2019-03-17T11:07:49.107Z,20.10
2019-03-17T11:10:18.547Z,20.00
2019-03-17T11:12:47.817Z,19.70
2019-03-17T11:15:21.964Z,19.70
2019-03-17T11:17:51.570Z,20.10
2019-03-17T11:20:20.865Z,20.20
2019-03-17T11:22:50.476Z,20.10
2019-03-17T11:25:20.790Z,20.20
2019-03-17T11:27:50.072Z,20.70
2019-03-17T11:30:21.147Z,20.10
2019-03-17T11:32:50.447Z,19.70
2019-03-17T11:35:20.179Z,19.40
2019-03-17T11:37:49.464Z,19.50
2019-03-17T11:40:20.253Z,19.50
2019-03-17T11:42:50.444Z,20.00
2019-03-17T11:45:19.996Z,20.00
2019-03-17T11:47:49.519Z,19.80
2019-03-17T11:50:22.562Z,19.90
2019-03-17T11:52:52.295Z,20.20
2019-03-17T11:55:21.829Z,20.40
2019-03-17T11:57:51.090Z,20.20
2019-03-17T12:00:23.236Z,20.10
2019-03-17T12:02:52.577Z,20.30
2019-03-17T12:05:21.877Z,20.40
2019-03-17T12:07:51.113Z,20.00
2019-03-17T12:10:22.389Z,19.90
2019-03-17T12:12:51.677Z,19.60
2019-03-17T12:15:33.414Z,19.50
2019-03-17T12:18:02.685Z,19.00
2019-03-17T12:20:31.965Z,18.60
2019-03-17T12:23:01.226Z,18.60
2019-03-17T12:25:30.512Z,18.60
2019-03-17T12:27:59.798Z,19.00
2019-03-17T12:30:29.498Z,19.10
2019-03-17T12:32:59.435Z,19.30
2019-03-17T12:35:28.698Z,19.20
2019-03-17T12:37:58.040Z,19.00
2019-03-17T12:40:27.312Z,18.80
2019-03-17T12:42:56.579Z,18.70
2019-03-17T12:45:25.854Z,18.40
2019-03-17T12:47:55.127Z,18.10
2019-03-17T12:50:26.994Z,17.60
2019-03-17T12:52:56.633Z,17.20
2019-03-17T12:55:25.913Z,17.10
2019-03-17T12:57:55.200Z,17.40
2019-03-17T13:00:27.041Z,17.30
2019-03-17T13:02:56.381Z,17.10
2019-03-17T13:05:25.922Z,17.00
2019-03-17T13:07:55.265Z,16.80
2019-03-17T13:10:24.525Z,16.50
2019-03-17T13:12:53.799Z,16.60
2019-03-17T13:15:23.071Z,16.50
2019-03-17T13:17:52.345Z,16.40
2019-03-17T13:20:21.981Z,16.20
2019-03-17T13:22:51.252Z,16.30
2019-03-17T13:25:20.523Z,15.80
2019-03-17T13:27:49.809Z,15.30
2019-03-17T13:30:19.609Z,14.50
2019-03-17T13:32:49.219Z,14.10
2019-03-17T13:35:18.491Z,13.50
2019-03-17T13:37:47.775Z,13.10
2019-03-17T13:40:28.823Z,12.90
2019-03-17T13:42:50.533Z,12.70
2019-03-17T13:45:19.809Z,12.50
2019-03-17T13:47:49.104Z,11.70
2019-03-17T13:50:20.369Z,11.00
2019-03-17T13:52:49.642Z,10.50
2019-03-17T13:55:18.982Z,10.20
2019-03-17T13:58:01.362Z,10.20
2019-03-17T14:00:30.949Z,9.90
2019-03-17T14:03:00.224Z,9.60
2019-03-17T14:05:29.533Z,9.20
2019-03-17T14:07:58.769Z,8.90
2019-03-17T14:10:40.001Z,8.60
2019-03-17T14:12:59.032Z,8.50
2019-03-17T14:15:28.627Z,8.40
2019-03-17T14:17:57.981Z,8.20
2019-03-17T14:20:27.332Z,8.10
2019-03-17T14:22:56.629Z,8.00
2019-03-17T14:25:35.509Z,7.80
2019-03-17T14:28:04.850Z,7.70
2019-03-17T14:30:34.203Z,7.50
2019-03-17T14:33:03.497Z,7.40
2019-03-17T14:35:32.765Z,7.30
2019-03-17T14:38:02.044Z,7.30
2019-03-17T14:40:31.313Z,7.10
2019-03-17T14:43:00.587Z,6.90
2019-03-17T14:45:29.860Z,7.00
2019-03-17T14:47:59.133Z,7.10
2019-03-17T14:50:28.408Z,7.00
2019-03-17T14:53:00.731Z,6.80
2019-03-17T14:55:28.972Z,6.80
2019-03-17T14:57:58.252Z,6.70
2019-03-17T15:00:27.616Z,6.50
2019-03-17T15:02:57.223Z,6.50
2019-03-17T15:05:26.484Z,6.50
2019-03-17T15:07:55.758Z,6.50
2019-03-17T15:10:26.394Z,6.40
2019-03-17T15:12:55.670Z,6.40
2019-03-17T15:15:25.355Z,6.50
2019-03-17T15:17:54.622Z,6.60
2019-03-17T15:20:26.862Z,6.60
2019-03-17T15:22:56.443Z,6.70
2019-03-17T15:25:25.713Z,6.70
2019-03-17T15:27:54.991Z,6.80
2019-03-17T15:30:30.480Z,7.00
2019-03-17T15:32:59.756Z,7.00
2019-03-17T15:35:29.282Z,6.90
2019-03-17T15:37:58.547Z,6.90
2019-03-17T15:40:27.832Z,7.00
2019-03-17T15:42:57.385Z,6.90
2019-03-17T15:45:26.820Z,7.00
2019-03-17T15:47:56.398Z,7.00
2019-03-17T15:50:27.580Z,6.90
2019-03-17T15:52:56.850Z,7.00
2019-03-17T15:55:26.116Z,7.20
2019-03-17T15:57:55.376Z,7.10
2019-03-17T16:00:27.813Z,7.20
2019-03-17T16:02:57.075Z,7.20
2019-03-17T16:05:26.352Z,7.20
2019-03-17T16:07:55.705Z,7.20
2019-03-17T16:10:32.345Z,7.30
2019-03-17T16:13:01.854Z,7.20
2019-03-17T16:15:31.416Z,7.30
2019-03-17T16:18:00.715Z,7.40
2019-03-17T16:20:29.992Z,7.50
2019-03-17T16:22:59.259Z,7.50
2019-03-17T16:25:37.847Z,7.40
2019-03-17T16:28:07.447Z,7.40
2019-03-17T16:30:36.733Z,7.60
2019-03-17T16:33:06.069Z,7.50
2019-03-17T16:35:35.336Z,7.50
2019-03-17T16:38:04.677Z,7.40
2019-03-17T16:40:35.963Z,7.50
2019-03-17T16:43:06.283Z,7.60
2019-03-17T16:45:35.791Z,7.50
2019-03-17T16:48:05.516Z,7.50
2019-03-17T16:50:34.792Z,7.60
2019-03-17T16:53:04.060Z,7.60
2019-03-17T16:55:33.621Z,7.70
2019-03-17T16:58:02.890Z,7.80
2019-03-17T17:00:32.167Z,7.80
2019-03-17T17:03:01.458Z,7.80
2019-03-17T17:05:31.045Z,7.90
2019-03-17T17:08:00.333Z,8.00
2019-03-17T17:10:30.972Z,7.80
2019-03-17T17:13:00.223Z,7.70
2019-03-17T17:15:32.167Z,7.50
2019-03-17T17:18:01.387Z,7.60
2019-03-17T17:20:33.531Z,7.60
2019-03-17T17:23:03.051Z,7.60
2019-03-17T17:25:32.330Z,7.60
2019-03-17T17:28:01.610Z,7.50
2019-03-17T17:30:30.880Z,7.50
2019-03-17T17:33:00.147Z,7.50
2019-03-17T17:35:29.459Z,7.20
2019-03-17T17:37:58.712Z,7.10
2019-03-17T17:40:28.636Z,6.90
2019-03-17T17:42:57.902Z,6.90
2019-03-17T17:45:27.540Z,6.90
2019-03-17T17:47:56.815Z,6.70
2019-03-17T17:50:32.059Z,6.70
2019-03-17T17:53:01.611Z,6.80
2019-03-17T17:55:30.880Z,6.80
2019-03-17T17:58:00.143Z,6.80
2019-03-17T18:00:33.769Z,6.80
2019-03-17T18:03:03.036Z,6.80
2019-03-17T18:05:32.570Z,6.80
2019-03-17T18:08:01.900Z,6.60
2019-03-17T18:10:31.181Z,6.60
2019-03-17T18:13:00.448Z,6.60
2019-03-17T18:15:32.900Z,6.60
2019-03-17T18:18:02.463Z,6.70
2019-03-17T18:20:31.769Z,6.70
2019-03-17T18:23:01.379Z,6.80
2019-03-17T18:25:30.971Z,6.70
2019-03-17T18:28:00.576Z,6.80
2019-03-17T18:30:29.836Z,6.70
2019-03-17T18:32:59.100Z,6.60
2019-03-17T18:35:28.364Z,6.60
2019-03-17T18:37:57.978Z,6.60
2019-03-17T18:40:27.336Z,6.60
2019-03-17T18:42:56.598Z,6.60
2019-03-17T18:45:32.474Z,6.70
2019-03-17T18:48:01.783Z,6.60
2019-03-17T18:50:31.356Z,6.70
2019-03-17T18:53:00.630Z,6.60
2019-03-17T18:55:29.891Z,6.60
2019-03-17T18:57:59.166Z,6.70
2019-03-17T19:00:28.415Z,6.70
2019-03-17T19:02:57.677Z,6.60
2019-03-17T19:05:26.943Z,6.60
2019-03-17T19:07:56.211Z,6.70
2019-03-17T19:10:25.755Z,6.80
2019-03-17T19:12:55.037Z,6.70
2019-03-17T19:15:24.627Z,6.60
2019-03-17T19:17:53.896Z,6.80
2019-03-17T19:20:24.372Z,6.70
2019-03-17T19:22:53.632Z,6.70
2019-03-17T19:25:24.394Z,6.70
2019-03-17T19:27:53.684Z,6.60
2019-03-17T19:30:24.133Z,6.90
2019-03-17T19:32:53.835Z,6.80
2019-03-17T19:35:23.098Z,7.00
2019-03-17T19:37:52.365Z,7.00
2019-03-17T19:40:24.325Z,6.80
2019-03-17T19:42:59.126Z,6.80
2019-03-17T19:45:24.865Z,6.80
2019-03-17T19:47:54.470Z,6.90
2019-03-17T19:50:25.665Z,6.80
2019-03-17T19:52:55.679Z,6.80
2019-03-17T19:55:25.184Z,6.70
2019-03-17T19:57:54.689Z,6.60
2019-03-17T20:00:24.054Z,6.70
2019-03-17T20:02:53.318Z,6.70
2019-03-17T20:05:22.834Z,6.60
2019-03-17T20:07:52.129Z,6.60
2019-03-17T20:10:26.484Z,6.70
2019-03-17T20:12:56.226Z,6.70
2019-03-17T20:15:25.507Z,6.80
2019-03-17T20:17:54.804Z,6.70
2019-03-17T20:20:24.064Z,6.70
2019-03-17T20:22:53.336Z,6.70
2019-03-17T20:25:22.621Z,6.70
2019-03-17T20:27:51.915Z,6.70
2019-03-17T20:30:21.246Z,6.70
2019-03-17T20:32:50.518Z,6.60
2019-03-17T20:35:19.783Z,6.60
2019-03-17T20:37:49.389Z,6.50
2019-03-17T20:40:19.851Z,6.50
2019-03-17T20:42:49.427Z,6.60
2019-03-17T20:45:20.358Z,6.70
2019-03-17T20:47:49.692Z,6.60
2019-03-17T20:50:20.565Z,6.60
2019-03-17T20:52:49.834Z,6.60
2019-03-17T20:55:19.112Z,6.60
2019-03-17T20:57:48.391Z,6.50
2019-03-17T21:00:18.862Z,6.60
2019-03-17T21:02:48.143Z,6.40
2019-03-17T21:05:17.439Z,6.40
2019-03-17T21:07:47.037Z,6.30
2019-03-17T21:10:17.132Z,6.40
2019-03-17T21:12:46.451Z,6.30
2019-03-17T21:15:20.792Z,6.20
2019-03-17T21:17:50.140Z,6.20
2019-03-17T21:20:26.381Z,6.30
2019-03-17T21:22:55.716Z,6.30
2019-03-17T21:25:24.935Z,6.30
2019-03-17T21:27:54.551Z,6.30
2019-03-17T21:30:31.913Z,6.50
2019-03-17T21:33:01.440Z,6.30
2019-03-17T21:35:30.696Z,6.20
2019-03-17T21:37:59.959Z,6.30
2019-03-17T21:40:29.224Z,6.10
2019-03-17T21:42:58.520Z,6.10
2019-03-17T21:45:27.869Z,6.00
2019-03-17T21:47:57.449Z,6.00
2019-03-17T21:50:26.713Z,6.00
2019-03-17T21:52:55.977Z,6.00
2019-03-17T21:55:25.238Z,6.10
2019-03-17T21:57:54.519Z,6.00
2019-03-17T22:00:23.794Z,6.00
2019-03-17T22:02:54.908Z,6.00
2019-03-17T22:05:24.025Z,6.00
2019-03-17T22:07:53.287Z,5.90
2019-03-17T22:10:23.131Z,5.90
2019-03-17T22:12:52.382Z,5.90
2019-03-17T22:15:21.708Z,6.00
2019-03-17T22:17:51.041Z,6.00
2019-03-17T22:20:20.374Z,6.00
2019-03-17T22:22:49.640Z,5.90
2019-03-17T22:25:18.967Z,5.90
2019-03-17T22:27:48.522Z,5.80
2019-03-17T22:30:21.835Z,5.80
2019-03-17T22:32:51.411Z,5.70
2019-03-17T22:35:20.744Z,5.70
2019-03-17T22:37:50.316Z,5.80
2019-03-17T22:40:20.154Z,5.90
2019-03-17T22:42:49.484Z,5.80
2019-03-17T22:45:19.042Z,5.70
2019-03-17T22:47:48.297Z,5.80
2019-03-17T22:50:21.116Z,5.60
2019-03-17T22:52:50.385Z,5.60
2019-03-17T22:55:19.950Z,5.60
2019-03-17T22:57:49.222Z,5.70
2019-03-17T23:00:36.265Z,5.70
2019-03-17T23:03:06.494Z,5.80
2019-03-17T23:05:35.771Z,5.90
2019-03-17T23:08:05.479Z,6.00
2019-03-17T23:10:35.081Z,6.00
2019-03-17T23:13:04.341Z,5.90
2019-03-17T23:15:35.759Z,5.90
2019-03-17T23:18:04.757Z,5.80
2019-03-17T23:20:34.020Z,5.70
2019-03-17T23:23:03.285Z,5.70
2019-03-17T23:25:32.551Z,5.70
2019-03-17T23:28:01.814Z,5.70
2019-03-17T23:30:31.330Z,5.70
2019-03-17T23:33:00.590Z,5.80
2019-03-17T23:35:29.857Z,5.80
2019-03-17T23:37:59.437Z,5.80
2019-03-17T23:40:29.042Z,5.70
2019-03-17T23:42:58.856Z,5.70
2019-03-17T23:45:28.154Z,5.60
2019-03-17T23:47:57.667Z,5.60
2019-03-17T23:50:26.935Z,5.60
2019-03-17T23:52:56.198Z,5.60
2019-03-17T23:55:25.465Z,5.60
2019-03-17T23:57:55.070Z,5.60
